sensor_id;sensor_type;location;lat;lon;timestamp;P1;durP1;ratioP1;P2;durP2;ratioP2
78772;SDS011;68111;44.728;11.290;2024-03-23T00:53:49;16.85;;;11.07;;
78772;SDS011;68111;44.728;11.290;2024-03-23T00:56:15;17.23;;;11.30;;
78772;SDS011;68111;44.728;11.290;2024-03-23T00:58:41;17.45;;;11.32;;
78772;SDS011;68111;44.728;11.290;2024-03-23T01:01:06;16.55;;;11.10;;
78772;SDS011;68111;44.728;11.290;2024-03-23T01:03:32;16.67;;;11.73;;
78772;SDS011;68111;44.728;11.290;2024-03-23T01:05:59;16.67;;;10.23;;
78772;SDS011;68111;44.728;11.290;2024-03-23T01:08:29;15.98;;;10.07;;
78772;SDS011;68111;44.728;11.290;2024-03-23T01:10:58;18.05;;;10.27;;
78772;SDS011;68111;44.728;11.290;2024-03-23T01:13:25;14.35;;;9.23;;
78772;SDS011;68111;44.728;11.290;2024-03-23T01:15:52;14.35;;;9.18;;
78772;SDS011;68111;44.728;11.290;2024-03-23T01:18:18;13.85;;;9.50;;
78772;SDS011;68111;44.728;11.290;2024-03-23T01:20:45;17.55;;;10.25;;
78772;SDS011;68111;44.728;11.290;2024-03-23T01:23:11;15.95;;;9.85;;
78772;SDS011;68111;44.728;11.290;2024-03-23T01:25:36;14.48;;;9.27;;
78772;SDS011;68111;44.728;11.290;2024-03-23T01:28:03;14.57;;;9.13;;
78772;SDS011;68111;44.728;11.290;2024-03-23T01:30:29;13.88;;;8.82;;
78772;SDS011;68111;44.728;11.290;2024-03-23T01:32:55;16.35;;;9.02;;
78772;SDS011;68111;44.728;11.290;2024-03-23T01:35:21;12.27;;;8.77;;
78772;SDS011;68111;44.728;11.290;2024-03-23T01:37:47;13.95;;;9.48;;
78772;SDS011;68111;44.728;11.290;2024-03-23T01:40:13;14.10;;;8.10;;
78772;SDS011;68111;44.728;11.290;2024-03-23T01:42:40;13.60;;;9.15;;
78772;SDS011;68111;44.728;11.290;2024-03-23T01:45:08;13.13;;;8.68;;
78772;SDS011;68111;44.728;11.290;2024-03-23T01:47:37;13.32;;;9.02;;
78772;SDS011;68111;44.728;11.290;2024-03-23T01:50:03;13.45;;;8.80;;
78772;SDS011;68111;44.728;11.290;2024-03-23T01:52:30;16.40;;;9.52;;
78772;SDS011;68111;44.728;11.290;2024-03-23T01:54:56;14.60;;;8.40;;
78772;SDS011;68111;44.728;11.290;2024-03-23T01:57:21;12.80;;;8.40;;
78772;SDS011;68111;44.728;11.290;2024-03-23T01:59:48;13.50;;;8.63;;
78772;SDS011;68111;44.728;11.290;2024-03-23T02:02:23;12.48;;;8.27;;
78772;SDS011;68111;44.728;11.290;2024-03-23T02:04:49;13.55;;;8.40;;
78772;SDS011;68111;44.728;11.290;2024-03-23T02:07:15;14.27;;;8.55;;
78772;SDS011;68111;44.728;11.290;2024-03-23T02:09:40;14.00;;;9.15;;
78772;SDS011;68111;44.728;11.290;2024-03-23T02:12:06;12.80;;;8.07;;
78772;SDS011;68111;44.728;11.290;2024-03-23T02:14:32;12.38;;;7.55;;
78772;SDS011;68111;44.728;11.290;2024-03-23T02:16:58;10.40;;;7.10;;
78772;SDS011;68111;44.728;11.290;2024-03-23T02:19:24;11.82;;;6.93;;
78772;SDS011;68111;44.728;11.290;2024-03-23T02:21:50;12.35;;;8.00;;
78772;SDS011;68111;44.728;11.290;2024-03-23T02:24:15;12.13;;;7.55;;
78772;SDS011;68111;44.728;11.290;2024-03-23T02:26:41;11.13;;;7.03;;
78772;SDS011;68111;44.728;11.290;2024-03-23T02:29:07;10.18;;;6.45;;
78772;SDS011;68111;44.728;11.290;2024-03-23T02:31:34;10.40;;;6.22;;
78772;SDS011;68111;44.728;11.290;2024-03-23T02:34:01;13.65;;;6.80;;
78772;SDS011;68111;44.728;11.290;2024-03-23T02:36:27;9.88;;;6.53;;
78772;SDS011;68111;44.728;11.290;2024-03-23T02:38:52;11.77;;;6.22;;
78772;SDS011;68111;44.728;11.290;2024-03-23T02:41:18;9.65;;;6.07;;
78772;SDS011;68111;44.728;11.290;2024-03-23T02:43:49;9.48;;;6.60;;
78772;SDS011;68111;44.728;11.290;2024-03-23T02:46:17;13.75;;;6.45;;
78772;SDS011;68111;44.728;11.290;2024-03-23T02:48:44;10.63;;;6.88;;
78772;SDS011;68111;44.728;11.290;2024-03-23T02:51:10;14.65;;;7.63;;
78772;SDS011;68111;44.728;11.290;2024-03-23T02:53:35;11.00;;;7.25;;
78772;SDS011;68111;44.728;11.290;2024-03-23T02:56:01;11.80;;;7.25;;
78772;SDS011;68111;44.728;11.290;2024-03-23T02:58:27;11.30;;;7.05;;
78772;SDS011;68111;44.728;11.290;2024-03-23T03:00:53;12.30;;;6.93;;
78772;SDS011;68111;44.728;11.290;2024-03-23T03:03:19;10.45;;;7.20;;
78772;SDS011;68111;44.728;11.290;2024-03-23T03:05:44;13.07;;;7.50;;
78772;SDS011;68111;44.728;11.290;2024-03-23T03:08:10;11.82;;;6.97;;
78772;SDS011;68111;44.728;11.290;2024-03-23T03:10:36;12.63;;;7.28;;
78772;SDS011;68111;44.728;11.290;2024-03-23T03:13:02;14.52;;;7.40;;
78772;SDS011;68111;44.728;11.290;2024-03-23T03:15:28;11.05;;;7.32;;
78772;SDS011;68111;44.728;11.290;2024-03-23T03:17:54;12.35;;;7.47;;
78772;SDS011;68111;44.728;11.290;2024-03-23T03:20:20;12.68;;;7.82;;
78772;SDS011;68111;44.728;11.290;2024-03-23T03:22:47;12.77;;;7.47;;
78772;SDS011;68111;44.728;11.290;2024-03-23T03:25:14;14.18;;;8.30;;
78772;SDS011;68111;44.728;11.290;2024-03-23T03:27:39;11.35;;;7.80;;
78772;SDS011;68111;44.728;11.290;2024-03-23T03:30:05;12.63;;;7.80;;
78772;SDS011;68111;44.728;11.290;2024-03-23T03:32:33;13.95;;;8.13;;
78772;SDS011;68111;44.728;11.290;2024-03-23T03:35:00;13.02;;;8.05;;
78772;SDS011;68111;44.728;11.290;2024-03-23T03:37:26;12.05;;;8.35;;
78772;SDS011;68111;44.728;11.290;2024-03-23T03:39:52;12.90;;;7.78;;
78772;SDS011;68111;44.728;11.290;2024-03-23T03:42:18;12.80;;;8.57;;
78772;SDS011;68111;44.728;11.290;2024-03-23T03:44:43;15.52;;;8.82;;
78772;SDS011;68111;44.728;11.290;2024-03-23T03:47:09;13.63;;;9.07;;
78772;SDS011;68111;44.728;11.290;2024-03-23T03:49:35;14.52;;;9.38;;
78772;SDS011;68111;44.728;11.290;2024-03-23T03:52:01;15.02;;;8.73;;
78772;SDS011;68111;44.728;11.290;2024-03-23T03:54:27;13.85;;;8.60;;
78772;SDS011;68111;44.728;11.290;2024-03-23T03:56:53;16.08;;;9.77;;
78772;SDS011;68111;44.728;11.290;2024-03-23T03:59:19;14.85;;;9.25;;
78772;SDS011;68111;44.728;11.290;2024-03-23T04:01:45;15.52;;;9.25;;
78772;SDS011;68111;44.728;11.290;2024-03-23T04:04:12;15.48;;;10.40;;
78772;SDS011;68111;44.728;11.290;2024-03-23T04:06:39;15.65;;;10.27;;
78772;SDS011;68111;44.728;11.290;2024-03-23T04:09:05;14.50;;;9.80;;
78772;SDS011;68111;44.728;11.290;2024-03-23T04:11:31;17.05;;;9.40;;
78772;SDS011;68111;44.728;11.290;2024-03-23T04:13:57;17.73;;;9.98;;
78772;SDS011;68111;44.728;11.290;2024-03-23T04:16:27;15.30;;;8.95;;
78772;SDS011;68111;44.728;11.290;2024-03-23T04:18:53;17.77;;;10.13;;
78772;SDS011;68111;44.728;11.290;2024-03-23T04:21:19;13.35;;;9.23;;
78772;SDS011;68111;44.728;11.290;2024-03-23T04:23:46;15.02;;;9.57;;
78772;SDS011;68111;44.728;11.290;2024-03-23T04:26:11;14.00;;;9.40;;
78772;SDS011;68111;44.728;11.290;2024-03-23T04:28:38;15.05;;;8.95;;
78772;SDS011;68111;44.728;11.290;2024-03-23T04:31:04;13.55;;;9.10;;
78772;SDS011;68111;44.728;11.290;2024-03-23T04:33:30;13.10;;;8.73;;
78772;SDS011;68111;44.728;11.290;2024-03-23T04:35:56;14.75;;;9.43;;
78772;SDS011;68111;44.728;11.290;2024-03-23T04:38:22;14.48;;;9.43;;
78772;SDS011;68111;44.728;11.290;2024-03-23T04:40:58;13.55;;;9.30;;
78772;SDS011;68111;44.728;11.290;2024-03-23T04:43:28;15.43;;;9.63;;
78772;SDS011;68111;44.728;11.290;2024-03-23T04:45:54;14.00;;;9.35;;
78772;SDS011;68111;44.728;11.290;2024-03-23T04:48:20;15.82;;;9.60;;
78772;SDS011;68111;44.728;11.290;2024-03-23T04:50:54;15.40;;;9.47;;
78772;SDS011;68111;44.728;11.290;2024-03-23T04:53:21;16.05;;;9.35;;
78772;SDS011;68111;44.728;11.290;2024-03-23T04:55:46;15.48;;;9.38;;
78772;SDS011;68111;44.728;11.290;2024-03-23T04:58:12;14.45;;;9.15;;
78772;SDS011;68111;44.728;11.290;2024-03-23T05:00:38;14.13;;;9.30;;
78772;SDS011;68111;44.728;11.290;2024-03-23T05:03:04;15.65;;;9.63;;
78772;SDS011;68111;44.728;11.290;2024-03-23T05:05:30;14.35;;;9.63;;
78772;SDS011;68111;44.728;11.290;2024-03-23T05:07:56;14.90;;;9.38;;
78772;SDS011;68111;44.728;11.290;2024-03-23T05:10:21;15.32;;;8.82;;
78772;SDS011;68111;44.728;11.290;2024-03-23T05:12:47;14.80;;;9.15;;
78772;SDS011;68111;44.728;11.290;2024-03-23T05:15:13;14.18;;;8.65;;
78772;SDS011;68111;44.728;11.290;2024-03-23T05:17:39;12.85;;;8.15;;
78772;SDS011;68111;44.728;11.290;2024-03-23T05:20:05;12.38;;;8.07;;
78772;SDS011;68111;44.728;11.290;2024-03-23T05:22:35;14.55;;;8.55;;
78772;SDS011;68111;44.728;11.290;2024-03-23T05:25:01;13.75;;;7.80;;
78772;SDS011;68111;44.728;11.290;2024-03-23T05:27:31;13.85;;;7.85;;
78772;SDS011;68111;44.728;11.290;2024-03-23T05:29:58;10.80;;;7.47;;
78772;SDS011;68111;44.728;11.290;2024-03-23T05:32:24;12.63;;;7.40;;
78772;SDS011;68111;44.728;11.290;2024-03-23T05:34:50;14.85;;;8.13;;
78772;SDS011;68111;44.728;11.290;2024-03-23T05:37:21;14.60;;;9.13;;
78772;SDS011;68111;44.728;11.290;2024-03-23T05:39:48;11.63;;;7.70;;
78772;SDS011;68111;44.728;11.290;2024-03-23T05:42:18;11.85;;;7.70;;
78772;SDS011;68111;44.728;11.290;2024-03-23T05:44:44;12.05;;;6.85;;
78772;SDS011;68111;44.728;11.290;2024-03-23T05:47:10;12.13;;;7.25;;
78772;SDS011;68111;44.728;11.290;2024-03-23T05:49:38;11.73;;;7.10;;
78772;SDS011;68111;44.728;11.290;2024-03-23T05:52:04;14.43;;;8.05;;
78772;SDS011;68111;44.728;11.290;2024-03-23T05:54:30;11.80;;;7.30;;
78772;SDS011;68111;44.728;11.290;2024-03-23T05:56:55;12.35;;;7.45;;
78772;SDS011;68111;44.728;11.290;2024-03-23T05:59:21;10.75;;;7.15;;
78772;SDS011;68111;44.728;11.290;2024-03-23T06:01:47;11.88;;;7.15;;
78772;SDS011;68111;44.728;11.290;2024-03-23T06:04:13;13.48;;;7.53;;
78772;SDS011;68111;44.728;11.290;2024-03-23T06:06:39;14.13;;;7.25;;
78772;SDS011;68111;44.728;11.290;2024-03-23T06:09:05;10.80;;;6.72;;
78772;SDS011;68111;44.728;11.290;2024-03-23T06:11:31;10.60;;;6.53;;
78772;SDS011;68111;44.728;11.290;2024-03-23T06:13:57;9.27;;;6.13;;
78772;SDS011;68111;44.728;11.290;2024-03-23T06:16:22;11.23;;;5.93;;
78772;SDS011;68111;44.728;11.290;2024-03-23T06:18:52;10.35;;;6.35;;
78772;SDS011;68111;44.728;11.290;2024-03-23T06:21:20;9.57;;;5.95;;
78772;SDS011;68111;44.728;11.290;2024-03-23T06:23:46;11.45;;;5.93;;
78772;SDS011;68111;44.728;11.290;2024-03-23T06:26:17;10.73;;;5.85;;
78772;SDS011;68111;44.728;11.290;2024-03-23T06:28:46;9.75;;;5.85;;
78772;SDS011;68111;44.728;11.290;2024-03-23T06:31:14;8.85;;;5.85;;
78772;SDS011;68111;44.728;11.290;2024-03-23T06:33:40;10.88;;;5.70;;
78772;SDS011;68111;44.728;11.290;2024-03-23T06:36:10;9.57;;;5.95;;
78772;SDS011;68111;44.728;11.290;2024-03-23T06:38:36;10.10;;;6.68;;
78772;SDS011;68111;44.728;11.290;2024-03-23T06:41:06;10.05;;;6.22;;
78772;SDS011;68111;44.728;11.290;2024-03-23T06:43:32;13.88;;;8.00;;
78772;SDS011;68111;44.728;11.290;2024-03-23T06:45:58;15.60;;;9.45;;
78772;SDS011;68111;44.728;11.290;2024-03-23T06:48:24;11.80;;;6.97;;
78772;SDS011;68111;44.728;11.290;2024-03-23T06:50:54;10.32;;;6.60;;
78772;SDS011;68111;44.728;11.290;2024-03-23T06:55:49;12.55;;;7.00;;
78772;SDS011;68111;44.728;11.290;2024-03-23T06:58:18;12.77;;;6.53;;
78772;SDS011;68111;44.728;11.290;2024-03-23T07:00:46;13.18;;;6.93;;
78772;SDS011;68111;44.728;11.290;2024-03-23T07:03:11;12.40;;;6.57;;
78772;SDS011;68111;44.728;11.290;2024-03-23T07:05:37;9.43;;;5.70;;
78772;SDS011;68111;44.728;11.290;2024-03-23T07:08:03;12.35;;;6.00;;
78772;SDS011;68111;44.728;11.290;2024-03-23T07:10:29;9.70;;;6.05;;
78772;SDS011;68111;44.728;11.290;2024-03-23T07:12:55;8.95;;;6.13;;
78772;SDS011;68111;44.728;11.290;2024-03-23T07:15:21;11.55;;;5.90;;
78772;SDS011;68111;44.728;11.290;2024-03-23T07:17:47;9.75;;;5.68;;
78772;SDS011;68111;44.728;11.290;2024-03-23T07:20:13;11.25;;;6.28;;
78772;SDS011;68111;44.728;11.290;2024-03-23T07:22:39;12.70;;;6.18;;
78772;SDS011;68111;44.728;11.290;2024-03-23T07:25:05;9.85;;;5.63;;
78772;SDS011;68111;44.728;11.290;2024-03-23T07:27:32;13.70;;;5.85;;
78772;SDS011;68111;44.728;11.290;2024-03-23T07:29:57;10.68;;;5.65;;
78772;SDS011;68111;44.728;11.290;2024-03-23T07:32:23;10.73;;;5.60;;
78772;SDS011;68111;44.728;11.290;2024-03-23T07:34:49;9.20;;;5.75;;
78772;SDS011;68111;44.728;11.290;2024-03-23T07:37:15;9.88;;;6.65;;
78772;SDS011;68111;44.728;11.290;2024-03-23T07:39:41;10.50;;;5.80;;
78772;SDS011;68111;44.728;11.290;2024-03-23T07:42:07;7.90;;;5.20;;
78772;SDS011;68111;44.728;11.290;2024-03-23T07:44:32;11.70;;;5.63;;
78772;SDS011;68111;44.728;11.290;2024-03-23T07:46:59;9.45;;;5.20;;
78772;SDS011;68111;44.728;11.290;2024-03-23T07:49:26;7.95;;;5.32;;
78772;SDS011;68111;44.728;11.290;2024-03-23T07:51:52;11.38;;;6.10;;
78772;SDS011;68111;44.728;11.290;2024-03-23T07:54:19;9.60;;;6.18;;
78772;SDS011;68111;44.728;11.290;2024-03-23T07:56:45;10.48;;;5.97;;
78772;SDS011;68111;44.728;11.290;2024-03-23T07:59:11;9.70;;;5.75;;
78772;SDS011;68111;44.728;11.290;2024-03-23T08:01:36;11.95;;;5.82;;
78772;SDS011;68111;44.728;11.290;2024-03-23T08:04:02;10.23;;;6.18;;
78772;SDS011;68111;44.728;11.290;2024-03-23T08:06:28;10.50;;;5.60;;
78772;SDS011;68111;44.728;11.290;2024-03-23T08:08:55;11.15;;;5.63;;
78772;SDS011;68111;44.728;11.290;2024-03-23T08:11:28;10.18;;;5.20;;
78772;SDS011;68111;44.728;11.290;2024-03-23T08:13:55;12.73;;;5.50;;
78772;SDS011;68111;44.728;11.290;2024-03-23T08:16:21;10.68;;;5.70;;
78772;SDS011;68111;44.728;11.290;2024-03-23T08:18:47;10.85;;;6.07;;
78772;SDS011;68111;44.728;11.290;2024-03-23T08:21:13;11.68;;;6.30;;
78772;SDS011;68111;44.728;11.290;2024-03-23T08:23:39;13.52;;;6.47;;
78772;SDS011;68111;44.728;11.290;2024-03-23T08:28:35;14.23;;;5.85;;
78772;SDS011;68111;44.728;11.290;2024-03-23T08:31:07;11.48;;;6.28;;
78772;SDS011;68111;44.728;11.290;2024-03-23T08:33:34;12.32;;;6.13;;
78772;SDS011;68111;44.728;11.290;2024-03-23T08:36:01;10.55;;;5.47;;
78772;SDS011;68111;44.728;11.290;2024-03-23T08:38:29;10.90;;;5.70;;
78772;SDS011;68111;44.728;11.290;2024-03-23T08:41:01;11.98;;;5.78;;
78772;SDS011;68111;44.728;11.290;2024-03-23T08:43:29;9.70;;;5.30;;
78772;SDS011;68111;44.728;11.290;2024-03-23T08:46:05;10.95;;;5.93;;
78772;SDS011;68111;44.728;11.290;2024-03-23T08:48:32;11.18;;;5.82;;
78772;SDS011;68111;44.728;11.290;2024-03-23T08:51:03;9.68;;;5.00;;
78772;SDS011;68111;44.728;11.290;2024-03-23T08:53:30;9.93;;;5.10;;
78772;SDS011;68111;44.728;11.290;2024-03-23T08:55:57;8.85;;;4.45;;
78772;SDS011;68111;44.728;11.290;2024-03-23T08:58:24;6.53;;;3.80;;
78772;SDS011;68111;44.728;11.290;2024-03-23T09:00:55;9.85;;;5.05;;
78772;SDS011;68111;44.728;11.290;2024-03-23T09:03:25;8.50;;;4.03;;
78772;SDS011;68111;44.728;11.290;2024-03-23T09:05:51;11.25;;;4.75;;
78772;SDS011;68111;44.728;11.290;2024-03-23T09:08:19;8.07;;;4.50;;
78772;SDS011;68111;44.728;11.290;2024-03-23T09:10:45;8.85;;;4.45;;
78772;SDS011;68111;44.728;11.290;2024-03-23T09:13:11;10.13;;;4.50;;
78772;SDS011;68111;44.728;11.290;2024-03-23T09:15:37;7.55;;;4.38;;
78772;SDS011;68111;44.728;11.290;2024-03-23T09:18:10;8.43;;;3.90;;
78772;SDS011;68111;44.728;11.290;2024-03-23T09:20:36;6.88;;;3.22;;
78772;SDS011;68111;44.728;11.290;2024-03-23T09:23:02;7.63;;;3.97;;
78772;SDS011;68111;44.728;11.290;2024-03-23T09:25:28;6.22;;;3.45;;
78772;SDS011;68111;44.728;11.290;2024-03-23T09:27:53;7.90;;;3.47;;
78772;SDS011;68111;44.728;11.290;2024-03-23T09:30:19;8.10;;;3.33;;
78772;SDS011;68111;44.728;11.290;2024-03-23T09:32:45;7.95;;;3.70;;
78772;SDS011;68111;44.728;11.290;2024-03-23T09:35:11;7.82;;;4.00;;
78772;SDS011;68111;44.728;11.290;2024-03-23T09:37:40;6.82;;;3.90;;
78772;SDS011;68111;44.728;11.290;2024-03-23T09:40:10;7.53;;;2.88;;
78772;SDS011;68111;44.728;11.290;2024-03-23T09:42:39;5.25;;;3.05;;
78772;SDS011;68111;44.728;11.290;2024-03-23T09:45:30;5.90;;;3.17;;
78772;SDS011;68111;44.728;11.290;2024-03-23T09:47:57;6.88;;;3.40;;
78772;SDS011;68111;44.728;11.290;2024-03-23T09:50:23;7.03;;;3.92;;
78772;SDS011;68111;44.728;11.290;2024-03-23T09:52:49;7.25;;;3.97;;
78772;SDS011;68111;44.728;11.290;2024-03-23T09:55:15;8.60;;;4.32;;
78772;SDS011;68111;44.728;11.290;2024-03-23T09:57:41;7.20;;;3.50;;
78772;SDS011;68111;44.728;11.290;2024-03-23T10:00:07;8.98;;;4.30;;
78772;SDS011;68111;44.728;11.290;2024-03-23T10:02:34;6.18;;;2.95;;
78772;SDS011;68111;44.728;11.290;2024-03-23T10:05:01;5.93;;;2.67;;
78772;SDS011;68111;44.728;11.290;2024-03-23T10:07:27;4.95;;;2.80;;
78772;SDS011;68111;44.728;11.290;2024-03-23T10:09:56;4.97;;;2.83;;
78772;SDS011;68111;44.728;11.290;2024-03-23T10:12:22;5.07;;;2.75;;
78772;SDS011;68111;44.728;11.290;2024-03-23T10:14:49;5.68;;;2.72;;
78772;SDS011;68111;44.728;11.290;2024-03-23T10:17:16;5.85;;;3.28;;
78772;SDS011;68111;44.728;11.290;2024-03-23T10:19:46;6.17;;;3.30;;
78772;SDS011;68111;44.728;11.290;2024-03-23T10:22:24;6.75;;;2.40;;
78772;SDS011;68111;44.728;11.290;2024-03-23T10:24:50;5.63;;;2.83;;
78772;SDS011;68111;44.728;11.290;2024-03-23T10:27:17;4.85;;;2.63;;
78772;SDS011;68111;44.728;11.290;2024-03-23T10:29:48;6.00;;;3.33;;
78772;SDS011;68111;44.728;11.290;2024-03-23T10:32:15;6.10;;;3.13;;
78772;SDS011;68111;44.728;11.290;2024-03-23T10:34:42;5.95;;;2.90;;
78772;SDS011;68111;44.728;11.290;2024-03-23T10:37:09;6.55;;;3.05;;
78772;SDS011;68111;44.728;11.290;2024-03-23T10:39:36;4.97;;;3.15;;
78772;SDS011;68111;44.728;11.290;2024-03-23T10:42:03;5.55;;;3.15;;
78772;SDS011;68111;44.728;11.290;2024-03-23T10:44:31;7.82;;;2.90;;
78772;SDS011;68111;44.728;11.290;2024-03-23T10:47:00;5.82;;;2.90;;
78772;SDS011;68111;44.728;11.290;2024-03-23T10:49:28;6.18;;;3.22;;
78772;SDS011;68111;44.728;11.290;2024-03-23T10:52:04;5.93;;;2.80;;
78772;SDS011;68111;44.728;11.290;2024-03-23T10:54:31;4.75;;;2.83;;
78772;SDS011;68111;44.728;11.290;2024-03-23T11:00:09;6.50;;;2.90;;
78772;SDS011;68111;44.728;11.290;2024-03-23T11:02:36;6.57;;;3.05;;
78772;SDS011;68111;44.728;11.290;2024-03-23T11:05:02;6.80;;;3.22;;
78772;SDS011;68111;44.728;11.290;2024-03-23T11:07:54;5.25;;;2.63;;
78772;SDS011;68111;44.728;11.290;2024-03-23T11:10:38;6.45;;;2.80;;
78772;SDS011;68111;44.728;11.290;2024-03-23T11:13:21;5.22;;;3.03;;
78772;SDS011;68111;44.728;11.290;2024-03-23T11:15:47;4.85;;;2.80;;
78772;SDS011;68111;44.728;11.290;2024-03-23T11:18:19;4.82;;;2.60;;
78772;SDS011;68111;44.728;11.290;2024-03-23T11:20:46;6.97;;;3.50;;
78772;SDS011;68111;44.728;11.290;2024-03-23T11:23:27;4.90;;;3.00;;
78772;SDS011;68111;44.728;11.290;2024-03-23T11:25:53;5.18;;;3.08;;
78772;SDS011;68111;44.728;11.290;2024-03-23T11:28:19;7.25;;;3.90;;
78772;SDS011;68111;44.728;11.290;2024-03-23T11:30:45;9.07;;;3.38;;
78772;SDS011;68111;44.728;11.290;2024-03-23T11:33:11;7.47;;;3.72;;
78772;SDS011;68111;44.728;11.290;2024-03-23T11:35:38;6.80;;;3.80;;
78772;SDS011;68111;44.728;11.290;2024-03-23T11:38:12;9.40;;;4.32;;
78772;SDS011;68111;44.728;11.290;2024-03-23T11:40:46;7.40;;;3.50;;
78772;SDS011;68111;44.728;11.290;2024-03-23T11:43:14;7.25;;;4.28;;
78772;SDS011;68111;44.728;11.290;2024-03-23T11:50:39;5.43;;;2.80;;
78772;SDS011;68111;44.728;11.290;2024-03-23T11:55:46;7.40;;;4.10;;
78772;SDS011;68111;44.728;11.290;2024-03-23T11:58:13;7.07;;;3.55;;
78772;SDS011;68111;44.728;11.290;2024-03-23T12:00:40;7.05;;;3.63;;
78772;SDS011;68111;44.728;11.290;2024-03-23T12:03:06;5.60;;;3.15;;
78772;SDS011;68111;44.728;11.290;2024-03-23T12:05:32;7.32;;;3.83;;
78772;SDS011;68111;44.728;11.290;2024-03-23T12:10:47;8.30;;;4.38;;
78772;SDS011;68111;44.728;11.290;2024-03-23T12:13:15;8.32;;;4.20;;
78772;SDS011;68111;44.728;11.290;2024-03-23T12:15:42;8.88;;;4.35;;
78772;SDS011;68111;44.728;11.290;2024-03-23T12:18:09;9.30;;;3.97;;
78772;SDS011;68111;44.728;11.290;2024-03-23T12:20:36;5.13;;;2.90;;
78772;SDS011;68111;44.728;11.290;2024-03-23T12:23:10;5.13;;;3.10;;
78772;SDS011;68111;44.728;11.290;2024-03-23T12:25:40;5.75;;;2.80;;
78772;SDS011;68111;44.728;11.290;2024-03-23T12:28:06;4.20;;;2.50;;
78772;SDS011;68111;44.728;11.290;2024-03-23T12:30:37;8.18;;;3.30;;
78772;SDS011;68111;44.728;11.290;2024-03-23T12:33:07;5.22;;;2.78;;
78772;SDS011;68111;44.728;11.290;2024-03-23T12:35:33;8.23;;;4.68;;
78772;SDS011;68111;44.728;11.290;2024-03-23T12:37:59;6.05;;;3.63;;
78772;SDS011;68111;44.728;11.290;2024-03-23T12:40:25;8.88;;;3.90;;
78772;SDS011;68111;44.728;11.290;2024-03-23T12:42:52;5.68;;;3.00;;
78772;SDS011;68111;44.728;11.290;2024-03-23T12:45:18;8.27;;;3.90;;
78772;SDS011;68111;44.728;11.290;2024-03-23T12:47:43;10.25;;;5.47;;
78772;SDS011;68111;44.728;11.290;2024-03-23T12:50:09;11.63;;;6.53;;
78772;SDS011;68111;44.728;11.290;2024-03-23T12:52:36;9.18;;;4.10;;
78772;SDS011;68111;44.728;11.290;2024-03-23T12:55:01;8.88;;;4.13;;
78772;SDS011;68111;44.728;11.290;2024-03-23T12:57:28;6.60;;;3.72;;
78772;SDS011;68111;44.728;11.290;2024-03-23T12:59:54;5.63;;;2.97;;
78772;SDS011;68111;44.728;11.290;2024-03-23T13:02:21;9.13;;;4.25;;
78772;SDS011;68111;44.728;11.290;2024-03-23T13:04:49;6.93;;;3.10;;
78772;SDS011;68111;44.728;11.290;2024-03-23T13:07:16;7.15;;;3.35;;
78772;SDS011;68111;44.728;11.290;2024-03-23T13:09:42;8.65;;;4.32;;
78772;SDS011;68111;44.728;11.290;2024-03-23T13:12:08;9.00;;;4.50;;
78772;SDS011;68111;44.728;11.290;2024-03-23T13:14:34;8.13;;;3.83;;
78772;SDS011;68111;44.728;11.290;2024-03-23T13:17:00;5.25;;;2.88;;
78772;SDS011;68111;44.728;11.290;2024-03-23T13:19:25;9.30;;;3.92;;
78772;SDS011;68111;44.728;11.290;2024-03-23T13:21:53;5.35;;;3.00;;
78772;SDS011;68111;44.728;11.290;2024-03-23T13:24:23;5.65;;;3.17;;
78772;SDS011;68111;44.728;11.290;2024-03-23T13:26:50;6.75;;;3.10;;
78772;SDS011;68111;44.728;11.290;2024-03-23T13:29:18;5.22;;;2.80;;
78772;SDS011;68111;44.728;11.290;2024-03-23T13:31:45;6.95;;;3.17;;
78772;SDS011;68111;44.728;11.290;2024-03-23T13:34:11;5.10;;;2.65;;
78772;SDS011;68111;44.728;11.290;2024-03-23T13:36:38;5.78;;;3.33;;
78772;SDS011;68111;44.728;11.290;2024-03-23T13:39:04;9.88;;;4.80;;
78772;SDS011;68111;44.728;11.290;2024-03-23T13:41:37;6.97;;;3.50;;
78772;SDS011;68111;44.728;11.290;2024-03-23T13:44:07;6.43;;;3.33;;
78772;SDS011;68111;44.728;11.290;2024-03-23T13:46:36;7.60;;;3.90;;
78772;SDS011;68111;44.728;11.290;2024-03-23T13:49:03;5.32;;;2.88;;
78772;SDS011;68111;44.728;11.290;2024-03-23T13:51:29;7.22;;;2.90;;
78772;SDS011;68111;44.728;11.290;2024-03-23T13:53:55;8.27;;;3.00;;
78772;SDS011;68111;44.728;11.290;2024-03-23T13:56:25;4.15;;;2.58;;
78772;SDS011;68111;44.728;11.290;2024-03-23T13:58:50;6.43;;;3.10;;
78772;SDS011;68111;44.728;11.290;2024-03-23T14:01:16;5.85;;;2.83;;
78772;SDS011;68111;44.728;11.290;2024-03-23T14:03:42;5.70;;;3.05;;
78772;SDS011;68111;44.728;11.290;2024-03-23T14:06:09;4.55;;;2.78;;
78772;SDS011;68111;44.728;11.290;2024-03-23T14:08:36;5.88;;;2.70;;
78772;SDS011;68111;44.728;11.290;2024-03-23T14:11:05;5.50;;;3.17;;
78772;SDS011;68111;44.728;11.290;2024-03-23T14:13:31;5.28;;;2.90;;
78772;SDS011;68111;44.728;11.290;2024-03-23T14:15:58;9.90;;;4.47;;
78772;SDS011;68111;44.728;11.290;2024-03-23T14:18:24;6.47;;;3.20;;
78772;SDS011;68111;44.728;11.290;2024-03-23T14:20:51;8.05;;;3.90;;
78772;SDS011;68111;44.728;11.290;2024-03-23T14:23:19;6.43;;;3.40;;
78772;SDS011;68111;44.728;11.290;2024-03-23T14:25:44;7.95;;;3.30;;
78772;SDS011;68111;44.728;11.290;2024-03-23T14:28:10;5.60;;;3.05;;
78772;SDS011;68111;44.728;11.290;2024-03-23T14:30:40;5.45;;;3.15;;
78772;SDS011;68111;44.728;11.290;2024-03-23T14:33:07;9.77;;;4.60;;
78772;SDS011;68111;44.728;11.290;2024-03-23T14:35:33;6.75;;;4.00;;
78772;SDS011;68111;44.728;11.290;2024-03-23T14:37:59;10.18;;;4.35;;
78772;SDS011;68111;44.728;11.290;2024-03-23T14:40:24;9.55;;;4.03;;
78772;SDS011;68111;44.728;11.290;2024-03-23T14:42:56;9.35;;;4.35;;
78772;SDS011;68111;44.728;11.290;2024-03-23T14:45:23;9.13;;;3.72;;
78772;SDS011;68111;44.728;11.290;2024-03-23T14:47:53;7.57;;;3.47;;
78772;SDS011;68111;44.728;11.290;2024-03-23T14:50:18;6.75;;;3.25;;
78772;SDS011;68111;44.728;11.290;2024-03-23T14:52:45;8.77;;;3.70;;
78772;SDS011;68111;44.728;11.290;2024-03-23T14:55:11;6.32;;;3.20;;
78772;SDS011;68111;44.728;11.290;2024-03-23T14:57:38;3.83;;;2.58;;
78772;SDS011;68111;44.728;11.290;2024-03-23T15:00:10;4.93;;;2.75;;
78772;SDS011;68111;44.728;11.290;2024-03-23T15:02:36;7.25;;;4.22;;
78772;SDS011;68111;44.728;11.290;2024-03-23T15:05:02;4.00;;;2.58;;
78772;SDS011;68111;44.728;11.290;2024-03-23T15:07:32;6.70;;;3.20;;
78772;SDS011;68111;44.728;11.290;2024-03-23T15:09:58;8.55;;;4.35;;
78772;SDS011;68111;44.728;11.290;2024-03-23T15:12:24;5.38;;;3.08;;
78772;SDS011;68111;44.728;11.290;2024-03-23T15:14:50;6.80;;;3.10;;
78772;SDS011;68111;44.728;11.290;2024-03-23T15:17:15;6.30;;;3.00;;
78772;SDS011;68111;44.728;11.290;2024-03-23T15:19:41;5.30;;;2.78;;
78772;SDS011;68111;44.728;11.290;2024-03-23T15:22:08;5.22;;;2.88;;
78772;SDS011;68111;44.728;11.290;2024-03-23T15:24:34;5.90;;;2.65;;
78772;SDS011;68111;44.728;11.290;2024-03-23T15:27:02;4.75;;;2.58;;
78772;SDS011;68111;44.728;11.290;2024-03-23T15:29:28;5.22;;;2.95;;
78772;SDS011;68111;44.728;11.290;2024-03-23T15:31:54;5.18;;;2.58;;
78772;SDS011;68111;44.728;11.290;2024-03-23T15:34:20;6.20;;;3.15;;
78772;SDS011;68111;44.728;11.290;2024-03-23T15:36:49;5.38;;;3.08;;
78772;SDS011;68111;44.728;11.290;2024-03-23T15:39:18;5.00;;;2.72;;